Time;durP1;ratioP1;P1;durP2;ratioP2;P2;SDS_P1;SDS_P2;PMS_P1;PMS_P2;Temp;Humidity;BMP_temperature;BMP_pressure;BME280_temperature;BME280_humidity;BME280_pressure;Samples;Min_cycle;Max_cycle;Signal;HPM_P1;HPM_P2
2022/12/15 00:38:47;;;;;;;10.73;2.25;;;;;;;;;;5054313;28;20504;-76
2022/12/15 00:41:15;;;;;;;7.22;2.42;;;;;;;;;;5047768;28;20095;-76
2022/12/15 00:43:41;;;;;;;7.32;2.50;;;;;;;;;;5034981;28;20179;-76
2022/12/15 00:48:51;;;;;;;5.88;2.22;;;;;;;;;;5054763;28;20045;-75
2022/12/15 00:51:18;;;;;;;3.42;2.05;;;;;;;;;;5053713;28;20037;-75
2022/12/15 01:21:13;;;;;;;6.65;2.28;;;;;;;;;;5053376;28;20060;-75
2022/12/15 01:23:39;;;;;;;5.75;2.00;;;;;;;;;;5054001;28;20045;-75
2022/12/15 01:26:06;;;;;;;5.38;2.00;;;;;;;;;;5053223;28;20126;-75
2022/12/15 01:28:32;;;;;;;4.85;1.80;;;;;;;;;;5053568;28;20362;-75
2022/12/15 01:30:58;;;;;;;3.35;1.80;;;;;;;;;;5052499;28;20126;-75
2022/12/15 01:33:24;;;;;;;4.45;2.13;;;;;;;;;;5053988;28;20051;-75
2022/12/15 01:35:57;;;;;;;6.68;1.90;;;;;;;;;;5053963;28;20045;-75
2022/12/15 01:38:23;;;;;;;3.95;1.92;;;;;;;;;;5053536;28;20056;-75
2022/12/15 01:40:53;;;;;;;6.10;1.73;;;;;;;;;;5051318;28;20036;-75
2022/12/15 01:43:22;;;;;;;5.57;1.75;;;;;;;;;;5051006;28;20052;-75
2022/12/15 01:45:50;;;;;;;4.88;1.80;;;;;;;;;;5035900;28;20131;-75
2022/12/15 01:48:19;;;;;;;4.60;1.27;;;;;;;;;;5053835;28;20041;-75
2022/12/15 01:50:48;;;;;;;4.45;1.58;;;;;;;;;;5052043;28;20052;-75
2022/12/15 01:53:15;;;;;;;4.35;1.42;;;;;;;;;;5035834;28;20045;-75
2022/12/15 01:55:42;;;;;;;3.67;1.63;;;;;;;;;;5051152;28;20040;-75
2022/12/15 01:58:09;;;;;;;6.30;1.60;;;;;;;;;;5050654;28;20040;-75
2022/12/15 02:00:35;;;;;;;2.67;1.50;;;;;;;;;;5054358;28;20118;-75
2022/12/15 02:03:02;;;;;;;5.38;1.50;;;;;;;;;;5056410;28;20120;-76
2022/12/15 02:05:30;;;;;;;3.15;1.35;;;;;;;;;;5055980;28;20523;-76
2022/12/15 02:07:57;;;;;;;3.47;1.48;;;;;;;;;;5053143;28;20116;-76
2022/12/15 02:10:26;;;;;;;3.08;1.90;;;;;;;;;;5052450;28;20044;-76
2022/12/15 02:13:12;;;;;;;2.58;1.27;;;;;;;;;;5034308;28;20464;-76
2022/12/15 02:15:48;;;;;;;1.80;1.23;;;;;;;;;;5052542;28;20503;-76
2022/12/15 02:18:14;;;;;;;3.00;1.27;;;;;;;;;;5053197;28;20076;-75
2022/12/15 02:20:57;;;;;;;2.75;1.85;;;;;;;;;;5052250;28;20084;-75
2022/12/15 02:23:23;;;;;;;6.10;1.58;;;;;;;;;;5051359;28;20033;-75
2022/12/15 02:25:52;;;;;;;3.10;1.30;;;;;;;;;;5052921;28;20063;-75
2022/12/15 02:28:25;;;;;;;5.18;1.30;;;;;;;;;;5052192;28;20124;-75
2022/12/15 02:33:46;;;;;;;4.38;1.90;;;;;;;;;;5053232;28;20052;-75
2022/12/15 02:36:17;;;;;;;4.50;2.90;;;;;;;;;;5051499;28;20496;-75
2022/12/15 02:38:43;;;;;;;3.72;2.58;;;;;;;;;;5052700;28;20045;-75
2022/12/15 02:41:32;;;;;;;5.63;4.10;;;;;;;;;;5018542;28;20045;-75
2022/12/15 02:43:58;;;;;;;3.83;2.47;;;;;;;;;;5037516;28;20492;-75
2022/12/15 02:46:31;;;;;;;4.78;2.42;;;;;;;;;;5031646;28;20119;-75
2022/12/15 02:49:06;;;;;;;6.70;2.13;;;;;;;;;;5033207;28;20048;-75
2022/12/15 02:51:54;;;;;;;5.33;1.70;;;;;;;;;;5047697;28;20389;-75
2022/12/15 02:54:32;;;;;;;5.97;1.80;;;;;;;;;;5053081;28;20048;-75
2022/12/15 02:57:04;;;;;;;5.05;1.50;;;;;;;;;;5053177;28;20124;-75
2022/12/15 02:59:35;;;;;;;3.28;1.85;;;;;;;;;;5052361;28;20128;-75
2022/12/15 03:02:04;;;;;;;3.17;2.13;;;;;;;;;;5033932;28;20103;-75
2022/12/15 03:04:32;;;;;;;;;;;;;;;;;;5052894;28;20049;-75
2022/12/15 03:07:02;;;;;;;4.15;2.00;;;;;;;;;;5052644;28;19978;-75
2022/12/15 03:09:29;;;;;;;4.88;2.00;;;;;;;;;;5052184;28;20049;-75
2022/12/15 03:11:55;;;;;;;4.00;1.90;;;;;;;;;;5056457;28;20052;-75
2022/12/15 03:14:21;;;;;;;7.75;1.90;;;;;;;;;;5054554;28;24448;-75
2022/12/15 03:16:47;;;;;;;4.70;1.63;;;;;;;;;;5056214;28;20044;-75
2022/12/15 03:19:13;;;;;;;5.18;1.80;;;;;;;;;;5054429;28;24990;-75
2022/12/15 03:21:39;;;;;;;5.30;2.00;;;;;;;;;;5055894;28;20049;-75
2022/12/15 03:24:06;;;;;;;3.90;2.00;;;;;;;;;;5049728;28;20042;-75
2022/12/15 03:26:32;;;;;;;3.55;1.80;;;;;;;;;;5047223;28;20041;-75
2022/12/15 03:28:58;;;;;;;7.45;1.83;;;;;;;;;;5056292;28;20481;-75
2022/12/15 03:31:24;;;;;;;4.20;2.00;;;;;;;;;;5054960;28;20048;-75
2022/12/15 03:33:50;;;;;;;3.03;1.58;;;;;;;;;;5055583;28;20041;-75
2022/12/15 03:36:16;;;;;;;6.47;1.88;;;;;;;;;;5056436;28;20132;-75
2022/12/15 03:38:42;;;;;;;7.45;1.60;;;;;;;;;;5056219;28;20048;-75
2022/12/15 03:41:08;;;;;;;2.75;1.65;;;;;;;;;;5054969;28;20033;-75
2022/12/15 03:43:34;;;;;;;5.95;1.95;;;;;;;;;;5055857;28;20049;-75
2022/12/15 03:46:00;;;;;;;3.75;2.10;;;;;;;;;;5055519;28;20118;-75
2022/12/15 03:48:26;;;;;;;3.63;1.60;;;;;;;;;;5055284;28;20412;-75
2022/12/15 03:50:52;;;;;;;5.97;1.63;;;;;;;;;;5048393;28;20045;-75
2022/12/15 03:53:18;;;;;;;4.60;1.52;;;;;;;;;;5049632;28;20037;-75
2022/12/15 03:55:44;;;;;;;4.97;1.50;;;;;;;;;;5054641;28;20037;-75
2022/12/15 03:58:10;;;;;;;8.10;1.70;;;;;;;;;;5055690;28;20040;-75
2022/12/15 04:00:38;;;;;;;4.90;1.58;;;;;;;;;;5055489;28;20041;-75
2022/12/15 04:03:04;;;;;;;4.15;2.10;;;;;;;;;;5055580;28;20389;-75
2022/12/15 04:05:32;;;;;;;3.03;1.60;;;;;;;;;;5055051;28;20079;-75
2022/12/15 04:07:58;;;;;;;3.92;1.65;;;;;;;;;;5055289;28;20052;-75
2022/12/15 04:10:25;;;;;;;3.50;1.48;;;;;;;;;;5054740;28;20051;-75
2022/12/15 04:13:01;;;;;;;6.18;1.90;;;;;;;;;;5055466;28;20059;-75
2022/12/15 04:15:28;;;;;;;3.03;1.30;;;;;;;;;;5054815;28;20087;-75
2022/12/15 04:17:54;;;;;;;5.45;1.77;;;;;;;;;;5055631;28;20041;-75
2022/12/15 04:20:20;;;;;;;5.22;1.67;;;;;;;;;;5054551;28;20542;-75
2022/12/15 04:22:47;;;;;;;5.75;1.70;;;;;;;;;;5055202;28;20404;-75
2022/12/15 05:34:03;;;;;;;5.75;1.75;;;;;;;;;;5052645;28;20445;-76
2022/12/15 05:36:29;;;;;;;7.97;2.00;;;;;;;;;;5053868;28;20470;-76
2022/12/15 05:38:55;;;;;;;9.63;1.88;;;;;;;;;;5053431;28;20424;-76
2022/12/15 05:41:22;;;;;;;5.15;1.90;;;;;;;;;;5052059;28;20052;-76
2022/12/15 05:43:48;;;;;;;5.32;2.20;;;;;;;;;;5035477;28;20106;-75
2022/12/15 05:46:14;;;;;;;9.32;2.00;;;;;;;;;;5053371;28;20429;-76
2022/12/15 05:48:40;;;;;;;7.85;1.88;;;;;;;;;;5053540;28;20041;-75
2022/12/15 05:51:08;;;;;;;5.65;1.95;;;;;;;;;;5053402;28;20459;-75
2022/12/15 05:53:34;;;;;;;5.70;1.95;;;;;;;;;;5052527;28;20175;-75
2022/12/15 05:56:02;;;;;;;5.38;2.15;;;;;;;;;;5034064;28;20049;-75
2022/12/15 05:58:28;;;;;;;9.00;2.10;;;;;;;;;;5053053;28;20045;-75
2022/12/15 06:00:54;;;;;;;7.05;2.22;;;;;;;;;;5052451;28;20417;-75
2022/12/15 06:03:20;;;;;;;7.78;2.40;;;;;;;;;;5051735;28;20386;-75
2022/12/15 06:05:46;;;;;;;4.88;2.33;;;;;;;;;;5053355;28;20522;-75
2022/12/15 06:08:12;;;;;;;6.88;1.90;;;;;;;;;;5052945;28;20512;-75
2022/12/15 06:10:38;;;;;;;5.00;2.00;;;;;;;;;;5052363;28;20492;-75
2022/12/15 06:13:04;;;;;;;6.13;2.05;;;;;;;;;;5052827;28;20468;-76
2022/12/15 06:15:30;;;;;;;6.05;1.90;;;;;;;;;;5053204;28;20473;-76
2022/12/15 06:17:56;;;;;;;7.45;2.00;;;;;;;;;;5053210;28;20044;-76
2022/12/15 06:20:23;;;;;;;7.25;2.05;;;;;;;;;;5052869;28;20175;-76
2022/12/15 06:22:49;;;;;;;9.10;2.45;;;;;;;;;;5052716;28;20063;-76
2022/12/15 06:25:15;;;;;;;5.95;2.50;;;;;;;;;;5051606;28;20473;-76
2022/12/15 06:27:41;;;;;;;6.63;2.10;;;;;;;;;;5053577;28;20041;-76
2022/12/15 06:30:07;;;;;;;11.43;2.30;;;;;;;;;;5035330;28;20052;-76
2022/12/15 06:32:35;;;;;;;5.82;2.25;;;;;;;;;;5052062;28;20496;-76
2022/12/15 06:35:01;;;;;;;4.93;2.40;;;;;;;;;;5038621;28;20057;-76
2022/12/15 06:37:27;;;;;;;5.00;2.17;;;;;;;;;;5053086;28;20091;-76
2022/12/15 06:39:53;;;;;;;5.30;2.03;;;;;;;;;;5051937;28;20091;-76
2022/12/15 06:42:19;;;;;;;5.63;2.03;;;;;;;;;;5052177;28;20044;-75
2022/12/15 06:44:45;;;;;;;5.18;1.80;;;;;;;;;;5049918;28;20049;-75
2022/12/15 06:47:11;;;;;;;27.58;2.83;;;;;;;;;;5057121;28;20045;-76
2022/12/15 06:49:37;;;;;;;7.60;2.10;;;;;;;;;;5056690;28;20063;-76
2022/12/15 06:52:03;;;;;;;7.47;2.20;;;;;;;;;;5038141;28;20045;-76
2022/12/15 06:54:29;;;;;;;6.93;2.08;;;;;;;;;;5039406;28;20096;-76
2022/12/15 06:56:55;;;;;;;6.40;2.10;;;;;;;;;;5021203;28;20447;-78
2022/12/15 06:59:21;;;;;;;7.13;2.45;;;;;;;;;;5019205;28;20103;-76
2022/12/15 07:01:48;;;;;;;6.32;2.38;;;;;;;;;;5019043;28;20096;-79
2022/12/15 07:04:14;;;;;;;6.80;2.42;;;;;;;;;;5037915;28;20045;-76
2022/12/15 07:06:41;;;;;;;5.75;2.10;;;;;;;;;;5056563;28;20044;-76
2022/12/15 07:09:10;;;;;;;6.88;2.20;;;;;;;;;;5042234;28;20049;-76
2022/12/15 07:11:36;;;;;;;6.13;2.25;;;;;;;;;;5030048;28;20056;-76
2022/12/15 07:14:03;;;;;;;9.63;2.70;;;;;;;;;;5055272;28;20143;-76
2022/12/15 07:16:30;;;;;;;8.43;2.38;;;;;;;;;;5056432;28;20492;-76
2022/12/15 07:18:56;;;;;;;5.50;2.63;;;;;;;;;;5055905;28;20052;-76
2022/12/15 07:21:22;;;;;;;6.97;2.40;;;;;;;;;;5018155;28;20121;-76
2022/12/15 07:23:48;;;;;;;7.40;2.22;;;;;;;;;;5049992;28;20120;-76
2022/12/15 07:26:14;;;;;;;7.47;2.35;;;;;;;;;;5056225;28;20100;-76
2022/12/15 07:28:40;;;;;;;8.27;2.60;;;;;;;;;;5056401;28;20514;-76
2022/12/15 07:31:08;;;;;;;7.00;2.47;;;;;;;;;;5056111;28;20045;-76
2022/12/15 07:33:35;;;;;;;6.57;2.33;;;;;;;;;;5053378;28;20045;-76
2022/12/15 07:36:01;;;;;;;7.30;1.98;;;;;;;;;;5043514;28;20052;-76
2022/12/15 07:38:28;;;;;;;12.82;2.60;;;;;;;;;;5017983;28;20049;-76
2022/12/15 07:40:54;;;;;;;6.68;2.30;;;;;;;;;;5050852;28;20507;-76
2022/12/15 07:43:21;;;;;;;7.53;2.60;;;;;;;;;;5056108;28;20041;-76
2022/12/15 07:45:53;;;;;;;8.75;2.00;;;;;;;;;;5055929;28;20462;-76
2022/12/15 07:48:19;;;;;;;7.60;2.70;;;;;;;;;;5054905;28;20037;-76
2022/12/15 07:50:46;;;;;;;5.18;2.47;;;;;;;;;;5054697;28;20420;-76
2022/12/15 07:53:12;;;;;;;6.50;2.65;;;;;;;;;;5055602;28;20072;-76
2022/12/15 07:55:38;;;;;;;15.25;2.50;;;;;;;;;;5054774;28;20055;-76
2022/12/15 07:58:04;;;;;;;5.40;2.17;;;;;;;;;;5055177;28;20385;-76
2022/12/15 08:00:30;;;;;;;6.28;2.10;;;;;;;;;;5055135;28;20147;-76
2022/12/15 08:02:56;;;;;;;8.80;2.45;;;;;;;;;;5055398;28;20037;-76
2022/12/15 08:05:22;;;;;;;6.57;2.28;;;;;;;;;;5055362;28;20095;-76
2022/12/15 08:07:48;;;;;;;5.50;2.00;;;;;;;;;;5055623;28;20087;-76
2022/12/15 08:10:14;;;;;;;6.82;2.28;;;;;;;;;;5055029;28;20037;-76
2022/12/15 08:12:40;;;;;;;8.05;2.30;;;;;;;;;;5057097;28;20056;-76
2022/12/15 08:15:07;;;;;;;8.45;2.20;;;;;;;;;;5059788;28;20045;-76
2022/12/15 08:17:33;;;;;;;11.52;2.65;;;;;;;;;;5058665;28;20044;-76
2022/12/15 08:19:59;;;;;;;5.45;2.05;;;;;;;;;;5054332;28;20041;-76
2022/12/15 08:22:25;;;;;;;4.30;2.47;;;;;;;;;;5055543;28;20049;-77
2022/12/15 08:24:51;;;;;;;8.70;2.75;;;;;;;;;;5054634;28;20563;-76
2022/12/15 08:27:17;;;;;;;5.63;2.40;;;;;;;;;;5055038;28;20124;-76
2022/12/15 08:29:43;;;;;;;7.10;2.47;;;;;;;;;;5030861;28;20528;-76
2022/12/15 08:32:09;;;;;;;12.82;2.97;;;;;;;;;;5050183;28;20050;-76
2022/12/15 08:34:35;;;;;;;6.50;2.63;;;;;;;;;;5048652;28;20090;-76
2022/12/15 08:37:01;;;;;;;7.38;2.70;;;;;;;;;;5054063;28;20033;-76
2022/12/15 08:39:27;;;;;;;11.35;2.60;;;;;;;;;;5053867;28;20484;-77
2022/12/15 08:41:53;;;;;;;10.32;3.30;;;;;;;;;;5052915;28;20516;-77
2022/12/15 08:44:19;;;;;;;7.55;2.30;;;;;;;;;;5036090;28;20041;-75
2022/12/15 08:46:45;;;;;;;8.05;2.45;;;;;;;;;;5051242;28;20033;-75
2022/12/15 08:49:11;;;;;;;8.80;3.08;;;;;;;;;;5043341;28;20136;-74
2022/12/15 08:51:37;;;;;;;11.85;2.70;;;;;;;;;;5033116;28;20053;-75
2022/12/15 08:54:03;;;;;;;6.28;2.63;;;;;;;;;;5035974;28;20045;-75
2022/12/15 08:56:29;;;;;;;7.68;3.63;;;;;;;;;;5034352;28;20041;-76
2022/12/15 08:58:59;;;;;;;10.60;7.25;;;;;;;;;;5034198;28;20042;-76
2022/12/15 09:01:26;;;;;;;9.35;3.22;;;;;;;;;;5033938;28;20049;-76
2022/12/15 09:03:53;;;;;;;7.82;3.08;;;;;;;;;;5034015;28;20045;-78
2022/12/15 09:06:20;;;;;;;6.40;2.90;;;;;;;;;;5033636;28;20045;-76
2022/12/15 09:08:46;;;;;;;8.75;2.70;;;;;;;;;;5033556;28;20485;-76
2022/12/15 09:11:12;;;;;;;8.57;3.72;;;;;;;;;;5034207;28;20071;-76
2022/12/15 09:13:38;;;;;;;5.25;2.85;;;;;;;;;;5034026;28;20050;-76
2022/12/15 09:16:12;;;;;;;6.40;3.25;;;;;;;;;;5032644;28;20707;-77
2022/12/15 09:18:38;;;;;;;7.90;4.25;;;;;;;;;;5033390;28;20089;-75
2022/12/15 09:21:06;;;;;;;10.90;6.82;;;;;;;;;;5032535;28;20540;-76
2022/12/15 09:23:32;;;;;;;5.80;4.40;;;;;;;;;;5033947;28;20049;-76
2022/12/15 09:26:02;;;;;;;8.35;3.67;;;;;;;;;;5031647;28;20060;-75
2022/12/15 09:28:28;;;;;;;10.00;3.30;;;;;;;;;;5032162;28;20517;-76
2022/12/15 09:30:54;;;;;;;6.57;2.90;;;;;;;;;;5030974;28;20069;-76
2022/12/15 09:33:21;;;;;;;7.38;2.80;;;;;;;;;;5033204;28;20041;-76
2022/12/15 09:35:53;;;;;;;9.60;3.25;;;;;;;;;;5030542;28;20073;-76
2022/12/15 09:38:19;;;;;;;6.80;2.88;;;;;;;;;;5033239;28;20084;-76
2022/12/15 09:40:45;;;;;;;6.57;2.38;;;;;;;;;;5031260;28;20042;-76
2022/12/15 09:43:16;;;;;;;8.35;2.72;;;;;;;;;;5014952;28;20049;-76
2022/12/15 09:45:44;;;;;;;5.88;2.42;;;;;;;;;;5033193;28;20131;-76
2022/12/15 09:48:15;;;;;;;9.65;2.55;;;;;;;;;;5032863;28;20092;-76
2022/12/15 09:50:43;;;;;;;6.78;2.65;;;;;;;;;;5015572;28;20096;-76
2022/12/15 09:53:10;;;;;;;8.07;2.88;;;;;;;;;;5030814;28;20048;-76
2022/12/15 09:55:37;;;;;;;10.32;3.38;;;;;;;;;;4997872;28;20378;-76
2022/12/15 09:58:29;;;;;;;9.27;2.90;;;;;;;;;;5011789;28;20057;-76
2022/12/15 10:01:00;;;;;;;5.75;2.80;;;;;;;;;;5027645;28;20044;-76
2022/12/15 10:03:45;;;;;;;6.20;2.78;;;;;;;;;;5017411;28;20506;-76
2022/12/15 10:06:13;;;;;;;15.27;3.70;;;;;;;;;;5033582;28;20038;-79
2022/12/15 10:08:40;;;;;;;8.68;3.67;;;;;;;;;;5029585;28;20038;-77
2022/12/15 10:11:34;;;;;;;5.25;2.75;;;;;;;;;;5030084;28;20049;-78
2022/12/15 10:14:19;;;;;;;7.20;3.03;;;;;;;;;;5013220;28;20101;-78
2022/12/15 10:16:54;;;;;;;9.90;3.67;;;;;;;;;;5013318;28;20042;-77
2022/12/15 10:19:29;;;;;;;7.85;3.20;;;;;;;;;;5018449;28;20120;-77
2022/12/15 10:21:56;;;;;;;6.88;2.90;;;;;;;;;;5033551;28;20072;-77
2022/12/15 10:24:22;;;;;;;11.52;3.22;;;;;;;;;;5034004;28;20049;-77
2022/12/15 10:26:55;;;;;;;4.95;2.67;;;;;;;;;;5033314;28;20053;-77
2022/12/15 10:29:26;;;;;;;7.40;2.55;;;;;;;;;;5015596;28;20553;-77
2022/12/15 10:31:56;;;;;;;9.30;2.90;;;;;;;;;;5032020;28;20803;-77
2022/12/15 10:34:25;;;;;;;8.95;2.90;;;;;;;;;;5032841;28;20056;-77
2022/12/15 10:36:52;;;;;;;6.72;2.42;;;;;;;;;;5032627;28;20053;-77
2022/12/15 10:39:20;;;;;;;7.45;2.75;;;;;;;;;;5020520;28;20053;-77
2022/12/15 10:41:46;;;;;;;6.70;2.55;;;;;;;;;;5031412;28;24439;-77
2022/12/15 10:44:23;;;;;;;10.38;2.55;;;;;;;;;;5032515;28;20049;-78
2022/12/15 10:46:54;;;;;;;7.93;2.88;;;;;;;;;;5013131;28;20090;-78
2022/12/15 10:49:24;;;;;;;5.20;2.30;;;;;;;;;;5013324;28;20046;-78
2022/12/15 10:51:59;;;;;;;6.45;2.67;;;;;;;;;;5023149;28;20057;-78
2022/12/15 10:54:35;;;;;;;16.85;2.97;;;;;;;;;;5025808;28;20103;-78
2022/12/15 10:57:14;;;;;;;7.90;2.50;;;;;;;;;;5030999;28;20128;-78
2022/12/15 10:59:40;;;;;;;7.53;2.67;;;;;;;;;;5030955;28;20532;-78
2022/12/15 11:02:18;;;;;;;6.53;2.10;;;;;;;;;;5032388;28;20397;-77
2022/12/15 11:04:54;;;;;;;7.38;2.60;;;;;;;;;;5032388;28;20052;-77
2022/12/15 11:07:20;;;;;;;5.75;2.20;;;;;;;;;;5032963;28;20084;-76
2022/12/15 11:09:48;;;;;;;5.72;2.70;;;;;;;;;;5031463;28;20041;-76
2022/12/15 11:15:22;;;;;;;8.82;2.75;;;;;;;;;;5032693;28;20077;-78
2022/12/15 11:17:51;;;;;;;5.85;2.63;;;;;;;;;;5030303;28;20045;-76
2022/12/15 11:20:22;;;;;;;3.25;2.35;;;;;;;;;;5030111;28;20405;-74
2022/12/15 11:23:06;;;;;;;8.93;3.05;;;;;;;;;;5033553;28;20081;-74
2022/12/15 11:25:49;;;;;;;9.50;2.72;;;;;;;;;;5030711;28;20125;-74
2022/12/15 11:28:17;;;;;;;6.38;2.67;;;;;;;;;;5034486;28;20046;-74
2022/12/15 11:30:50;;;;;;;4.35;2.38;;;;;;;;;;5033638;28;20041;-74
2022/12/15 11:33:16;;;;;;;8.32;2.67;;;;;;;;;;5036011;28;20050;-74
2022/12/15 11:35:46;;;;;;;8.00;3.22;;;;;;;;;;5035699;28;20050;-74
2022/12/15 11:38:18;;;;;;;8.45;2.95;;;;;;;;;;5015704;28;20057;-74
2022/12/15 11:40:44;;;;;;;7.82;2.60;;;;;;;;;;5024247;28;20037;-74
2022/12/15 11:43:18;;;;;;;4.72;2.65;;;;;;;;;;5026517;28;20056;-75
2022/12/15 11:45:50;;;;;;;7.70;2.80;;;;;;;;;;5018221;28;20041;-75
2022/12/15 11:48:21;;;;;;;8.50;2.47;;;;;;;;;;5035579;28;20060;-75
2022/12/15 11:50:47;;;;;;;4.40;2.47;;;;;;;;;;5034640;28;20335;-74
2022/12/15 11:53:13;;;;;;;12.55;3.35;;;;;;;;;;5034503;28;20107;-74
2022/12/15 11:55:39;;;;;;;8.25;3.05;;;;;;;;;;5034355;28;20045;-74
2022/12/15 11:58:11;;;;;;;9.57;2.50;;;;;;;;;;5017378;28;20052;-75
2022/12/15 12:00:58;;;;;;;4.93;2.50;;;;;;;;;;5024194;28;20045;-74
2022/12/15 12:03:24;;;;;;;8.13;3.65;;;;;;;;;;5015021;28;20469;-75
2022/12/15 12:06:04;;;;;;;9.85;3.00;;;;;;;;;;5008406;28;20180;-75
2022/12/15 12:08:39;;;;;;;7.80;2.63;;;;;;;;;;5032794;28;20041;-75
2022/12/15 12:11:19;;;;;;;6.77;2.47;;;;;;;;;;5031700;28;20156;-75
2022/12/15 12:13:53;;;;;;;10.18;2.60;;;;;;;;;;5029651;28;20053;-74
2022/12/15 12:16:19;;;;;;;5.28;2.35;;;;;;;;;;5042508;28;20100;-74
2022/12/15 12:18:52;;;;;;;7.18;2.83;;;;;;;;;;5033740;28;20042;-74
2022/12/15 12:21:21;;;;;;;5.13;2.22;;;;;;;;;;5025413;28;20062;-74
2022/12/15 12:23:47;;;;;;;7.55;2.60;;;;;;;;;;5032091;28;20037;-74
2022/12/15 12:26:23;;;;;;;5.90;2.50;;;;;;;;;;5036670;28;20172;-74
2022/12/15 12:29:11;;;;;;;5.10;2.42;;;;;;;;;;5016794;28;20056;-74
2022/12/15 12:31:40;;;;;;;6.35;2.67;;;;;;;;;;4990847;28;20045;-74
2022/12/15 12:34:17;;;;;;;5.72;2.22;;;;;;;;;;5031787;28;20504;-74
2022/12/15 12:36:44;;;;;;;7.57;2.88;;;;;;;;;;5033906;28;20045;-74
2022/12/15 12:39:16;;;;;;;5.68;2.58;;;;;;;;;;5034706;28;20042;-74
2022/12/15 12:41:48;;;;;;;10.95;2.80;;;;;;;;;;5032271;28;20124;-74
2022/12/15 12:44:31;;;;;;;7.10;2.45;;;;;;;;;;5028527;28;20180;-74
2022/12/15 12:47:00;;;;;;;9.15;2.60;;;;;;;;;;5034583;28;20045;-74
2022/12/15 12:49:32;;;;;;;7.15;2.33;;;;;;;;;;5014242;28;20053;-75
2022/12/15 12:52:00;;;;;;;8.02;2.63;;;;;;;;;;5033118;28;20092;-75
2022/12/15 12:54:35;;;;;;;5.70;2.08;;;;;;;;;;5034333;28;20378;-75
2022/12/15 12:57:11;;;;;;;8.65;2.60;;;;;;;;;;5022149;28;20041;-75
2022/12/15 12:59:46;;;;;;;7.68;2.33;;;;;;;;;;5028212;28;20041;-75
2022/12/15 13:02:24;;;;;;;8.25;2.45;;;;;;;;;;5032675;28;20041;-75
2022/12/15 13:04:51;;;;;;;5.78;2.10;;;;;;;;;;5034905;28;20124;-75
2022/12/15 13:07:17;;;;;;;7.97;2.72;;;;;;;;;;5033045;28;20417;-75
2022/12/15 13:09:43;;;;;;;6.10;2.30;;;;;;;;;;5033498;28;20486;-75
2022/12/15 13:12:28;;;;;;;5.40;2.60;;;;;;;;;;5031169;28;20052;-75
2022/12/15 13:14:54;;;;;;;8.38;3.00;;;;;;;;;;5016587;28;20096;-75
2022/12/15 13:17:27;;;;;;;10.25;2.95;;;;;;;;;;5034097;28;20052;-75
2022/12/15 13:19:53;;;;;;;7.57;2.75;;;;;;;;;;5033542;28;20041;-77
2022/12/15 13:22:30;;;;;;;7.72;2.97;;;;;;;;;;5031737;28;20155;-78
2022/12/15 13:24:56;;;;;;;8.27;3.00;;;;;;;;;;5033523;28;20477;-76
2022/12/15 13:27:23;;;;;;;6.18;2.50;;;;;;;;;;5033554;28;20117;-76
2022/12/15 13:29:54;;;;;;;7.90;2.65;;;;;;;;;;5032330;28;20500;-76
2022/12/15 13:32:27;;;;;;;7.10;3.50;;;;;;;;;;5015275;28;20088;-76
2022/12/15 13:34:53;;;;;;;8.77;3.50;;;;;;;;;;4996100;28;20394;-77
2022/12/15 13:37:39;;;;;;;6.40;2.72;;;;;;;;;;5011345;28;20059;-76
2022/12/15 13:40:24;;;;;;;8.68;2.92;;;;;;;;;;5021228;28;20435;-75
2022/12/15 13:42:57;;;;;;;6.43;2.47;;;;;;;;;;5032585;28;20045;-76
2022/12/15 13:45:39;;;;;;;8.70;2.80;;;;;;;;;;5033414;28;20528;-75
2022/12/15 13:48:07;;;;;;;5.47;2.35;;;;;;;;;;5033554;28;20048;-75
2022/12/15 13:50:54;;;;;;;6.03;3.30;;;;;;;;;;5015937;28;20073;-76
2022/12/15 13:53:21;;;;;;;8.18;3.42;;;;;;;;;;5015734;28;20045;-75
2022/12/15 13:56:17;;;;;;;6.60;3.05;;;;;;;;;;5032691;28;20056;-75
2022/12/15 13:58:45;;;;;;;5.88;2.65;;;;;;;;;;4998323;28;20053;-75
2022/12/15 14:01:18;;;;;;;10.40;2.80;;;;;;;;;;5033243;28;20057;-75
2022/12/15 14:04:03;;;;;;;7.32;2.30;;;;;;;;;;5029100;28;20374;-75
2022/12/15 14:06:33;;;;;;;8.82;2.40;;;;;;;;;;5030596;28;20049;-75
2022/12/15 14:08:59;;;;;;;8.18;2.47;;;;;;;;;;5032863;28;20045;-75
2022/12/15 14:11:30;;;;;;;6.82;2.38;;;;;;;;;;5032863;28;20054;-75
2022/12/15 14:13:58;;;;;;;4.60;2.20;;;;;;;;;;5029620;28;20056;-74
2022/12/15 14:16:25;;;;;;;6.97;2.28;;;;;;;;;;5032965;28;20513;-74
2022/12/15 14:19:08;;;;;;;4.55;1.98;;;;;;;;;;5033132;28;20100;-74
2022/12/15 14:21:34;;;;;;;8.27;2.28;;;;;;;;;;5032464;28;20045;-74
2022/12/15 14:24:00;;;;;;;1.40;1.30;;;;;;;;;;5031828;28;20037;-74
2022/12/15 14:26:29;;;;;;;4.65;1.50;;;;;;;;;;5033077;28;20466;-74
2022/12/15 14:29:03;;;;;;;6.05;1.65;;;;;;;;;;5011626;28;20050;-75
2022/12/15 14:31:30;;;;;;;3.17;1.55;;;;;;;;;;5021641;28;20169;-75
2022/12/15 14:34:08;;;;;;;5.82;1.80;;;;;;;;;;5032899;28;20564;-75
2022/12/15 14:36:34;;;;;;;3.50;1.75;;;;;;;;;;5014959;28;20045;-75
2022/12/15 14:39:06;;;;;;;3.50;1.88;;;;;;;;;;5030304;28;20100;-75
2022/12/15 14:41:36;;;;;;;2.95;2.08;;;;;;;;;;5036549;28;20115;-75
2022/12/15 14:44:05;;;;;;;5.47;3.75;;;;;;;;;;5035173;28;20055;-75
2022/12/15 14:46:31;;;;;;;4.53;2.88;;;;;;;;;;5032814;28;20049;-75
2022/12/15 14:48:59;;;;;;;5.45;4.90;;;;;;;;;;4998426;28;20060;-75
2022/12/15 14:51:26;;;;;;;4.65;4.07;;;;;;;;;;5032000;28;20053;-74
2022/12/15 14:53:53;;;;;;;6.40;3.55;;;;;;;;;;5031503;28;20038;-74
2022/12/15 14:56:19;;;;;;;6.38;3.97;;;;;;;;;;5032643;28;20053;-75
2022/12/15 14:58:58;;;;;;;5.47;3.53;;;;;;;;;;5032636;28;20037;-75
2022/12/15 15:01:29;;;;;;;5.47;3.20;;;;;;;;;;5031659;28;20045;-75
2022/12/15 15:04:04;;;;;;;6.35;4.13;;;;;;;;;;5032643;28;20044;-75
2022/12/15 15:06:35;;;;;;;5.15;3.50;;;;;;;;;;5036198;28;20377;-75
2022/12/15 15:09:14;;;;;;;8.35;5.50;;;;;;;;;;5035550;28;20037;-75
2022/12/15 15:11:41;;;;;;;5.07;2.97;;;;;;;;;;5035630;28;20065;-75
2022/12/15 15:14:10;;;;;;;6.00;3.13;;;;;;;;;;5036317;28;20042;-75
2022/12/15 15:16:36;;;;;;;4.25;2.72;;;;;;;;;;5036231;28;20563;-75
2022/12/15 15:19:06;;;;;;;5.28;2.60;;;;;;;;;;5036037;28;20120;-75
2022/12/15 15:21:35;;;;;;;5.00;3.08;;;;;;;;;;5017061;28;20099;-75
2022/12/15 15:24:10;;;;;;;5.50;3.45;;;;;;;;;;5034808;28;20077;-75
2022/12/15 15:26:37;;;;;;;7.85;3.67;;;;;;;;;;5035812;28;20076;-75
2022/12/15 15:29:04;;;;;;;4.20;3.80;;;;;;;;;;5036022;28;20055;-75
2022/12/15 15:31:31;;;;;;;4.55;2.60;;;;;;;;;;5017436;28;20124;-75
2022/12/15 15:33:58;;;;;;;4.45;2.55;;;;;;;;;;5001203;28;20046;-75
2022/12/15 15:36:25;;;;;;;4.30;2.08;;;;;;;;;;5035954;28;20049;-75
2022/12/15 15:38:51;;;;;;;9.70;5.18;;;;;;;;;;5014586;28;20111;-75
2022/12/15 15:41:19;;;;;;;4.13;2.65;;;;;;;;;;5015830;28;20049;-75
2022/12/15 15:43:45;;;;;;;4.25;2.88;;;;;;;;;;5035870;28;20045;-75
2022/12/15 15:46:16;;;;;;;4.20;2.92;;;;;;;;;;5034498;28;20038;-75
2022/12/15 15:48:44;;;;;;;4.68;2.00;;;;;;;;;;5035533;28;20055;-75
2022/12/15 15:51:10;;;;;;;3.88;2.65;;;;;;;;;;5034541;28;20091;-75
2022/12/15 15:53:36;;;;;;;3.83;2.50;;;;;;;;;;5017874;28;20045;-75
2022/12/15 15:56:07;;;;;;;3.85;2.53;;;;;;;;;;5018101;28;20057;-75
2022/12/15 15:58:36;;;;;;;3.85;2.38;;;;;;;;;;5007629;28;20120;-75
2022/12/15 16:01:03;;;;;;;5.25;2.58;;;;;;;;;;5035440;28;20084;-75
2022/12/15 16:03:29;;;;;;;3.88;2.53;;;;;;;;;;5034446;28;20073;-75
2022/12/15 16:05:55;;;;;;;5.50;2.80;;;;;;;;;;5034901;28;20469;-75
2022/12/15 16:08:24;;;;;;;7.95;3.60;;;;;;;;;;5035322;28;20053;-74
2022/12/15 16:10:50;;;;;;;5.18;4.05;;;;;;;;;;5034977;28;20137;-74
2022/12/15 16:13:17;;;;;;;8.63;5.90;;;;;;;;;;5033734;28;20056;-74
2022/12/15 16:15:43;;;;;;;8.38;4.88;;;;;;;;;;5015578;28;20049;-75
2022/12/15 16:18:09;;;;;;;30.13;12.68;;;;;;;;;;5010475;28;20053;-75
2022/12/15 16:20:36;;;;;;;42.78;13.98;;;;;;;;;;5032996;28;20041;-75
2022/12/15 16:23:04;;;;;;;16.17;5.95;;;;;;;;;;5034243;28;20481;-75
2022/12/15 16:25:33;;;;;;;22.65;9.90;;;;;;;;;;5034230;28;20103;-74
2022/12/15 16:27:59;;;;;;;20.15;7.47;;;;;;;;;;5035675;28;20053;-74
2022/12/15 16:30:26;;;;;;;15.77;7.90;;;;;;;;;;5034638;28;20046;-74
2022/12/15 16:32:52;;;;;;;8.20;3.80;;;;;;;;;;5033483;28;20139;-74
2022/12/15 16:35:19;;;;;;;6.45;4.10;;;;;;;;;;5034049;28;20052;-76
2022/12/15 16:37:45;;;;;;;6.50;3.47;;;;;;;;;;5033635;28;20034;-74
2022/12/15 16:40:16;;;;;;;5.70;3.60;;;;;;;;;;5034632;28;20047;-74
2022/12/15 16:42:42;;;;;;;7.38;3.40;;;;;;;;;;5028500;28;20393;-73
2022/12/15 16:45:15;;;;;;;7.63;4.60;;;;;;;;;;5032952;28;20040;-78
2022/12/15 16:47:41;;;;;;;5.57;3.10;;;;;;;;;;5033963;28;20049;-73
2022/12/15 16:50:17;;;;;;;16.77;7.60;;;;;;;;;;5005419;28;20121;-72
2022/12/15 16:52:45;;;;;;;6.47;4.20;;;;;;;;;;5034300;28;20046;-72
2022/12/15 16:55:18;;;;;;;8.88;4.43;;;;;;;;;;5033114;28;20041;-72
2022/12/15 16:57:45;;;;;;;6.85;5.22;;;;;;;;;;5015362;28;20052;-72
2022/12/15 17:00:19;;;;;;;4.72;3.25;;;;;;;;;;5015837;28;20041;-72
2022/12/15 17:02:46;;;;;;;6.20;3.10;;;;;;;;;;5016420;28;20041;-73
2022/12/15 17:05:12;;;;;;;8.68;3.10;;;;;;;;;;5033762;28;20073;-74
2022/12/15 17:07:42;;;;;;;4.88;3.30;;;;;;;;;;5032925;28;20042;-73
2022/12/15 17:10:14;;;;;;;7.78;5.00;;;;;;;;;;5033993;28;20053;-73
2022/12/15 17:12:43;;;;;;;6.80;3.15;;;;;;;;;;5012033;28;20046;-73
2022/12/15 17:15:40;;;;;;;6.28;3.55;;;;;;;;;;5033833;28;20165;-73
2022/12/15 17:18:06;;;;;;;4.97;2.80;;;;;;;;;;5031957;28;20520;-73